createdAt,value
2022-07-28T00:01:39.131Z,4.55
2022-07-28T00:04:07.334Z,4.82
2022-07-28T00:06:36.866Z,4.65
2022-07-28T00:09:05.278Z,4.15
2022-07-28T00:11:33.425Z,4.55
2022-07-28T00:14:01.739Z,4.80
2022-07-28T00:16:29.939Z,4.88
2022-07-28T00:18:58.178Z,4.50
2022-07-28T00:21:26.335Z,3.97
2022-07-28T00:23:55.838Z,4.10
2022-07-28T00:26:24.045Z,4.47
2022-07-28T00:28:52.130Z,4.50
2022-07-28T00:31:20.347Z,4.30
2022-07-28T00:33:48.496Z,4.88
2022-07-28T00:36:16.640Z,4.32
2022-07-28T00:38:45.959Z,4.78
2022-07-28T00:41:20.479Z,5.38
2022-07-28T00:43:50.951Z,4.97
2022-07-28T00:46:20.818Z,4.97
2022-07-28T00:48:50.704Z,5.80
2022-07-28T00:51:19.823Z,5.25
2022-07-28T00:53:48.637Z,5.28
2022-07-28T00:56:19.791Z,4.60
2022-07-28T00:58:49.176Z,5.55
2022-07-28T01:01:20.008Z,4.90
2022-07-28T01:03:51.489Z,5.57
2022-07-28T01:06:53.270Z,5.03
2022-07-28T01:09:38.622Z,5.32
2022-07-28T01:12:17.130Z,5.85
2022-07-28T01:14:50.343Z,6.00
2022-07-28T01:17:30.554Z,5.75
2022-07-28T01:20:06.342Z,5.70
2022-07-28T01:22:38.605Z,5.50
2022-07-28T01:25:19.090Z,5.30
2022-07-28T01:27:58.407Z,5.40
2022-07-28T01:30:37.710Z,5.60
2022-07-28T01:33:13.427Z,5.43
2022-07-28T01:35:47.469Z,6.93
2022-07-28T01:38:17.844Z,5.68
2022-07-28T01:40:48.439Z,6.25
2022-07-28T01:43:22.412Z,6.28
2022-07-28T01:45:52.427Z,6.07
2022-07-28T01:48:22.273Z,6.22
2022-07-28T01:50:51.964Z,5.63
2022-07-28T01:53:21.523Z,5.90
2022-07-28T01:55:52.225Z,6.50
2022-07-28T01:58:23.485Z,6.40
2022-07-28T02:00:54.373Z,6.70
2022-07-28T02:03:24.591Z,6.72
2022-07-28T02:05:55.027Z,6.68
2022-07-28T02:08:24.482Z,6.43
2022-07-28T02:11:09.844Z,6.20
2022-07-28T02:13:39.219Z,7.13
2022-07-28T02:16:12.276Z,6.45
2022-07-28T02:18:41.649Z,5.97
2022-07-28T02:21:11.682Z,6.13
2022-07-28T02:23:42.287Z,6.07
2022-07-28T02:28:40.085Z,6.57
2022-07-28T02:33:59.387Z,5.80
2022-07-28T02:36:31.466Z,6.18
2022-07-28T02:39:05.053Z,6.40
2022-07-28T02:41:38.156Z,5.80
2022-07-28T02:44:14.185Z,5.43
2022-07-28T02:46:48.292Z,5.15
2022-07-28T02:49:20.554Z,6.10
2022-07-28T02:51:50.676Z,5.90
2022-07-28T02:54:20.721Z,6.53
2022-07-28T02:56:53.336Z,6.32
2022-07-28T02:59:22.936Z,5.78
2022-07-28T03:01:53.110Z,6.60
2022-07-28T03:04:42.177Z,6.38
2022-07-28T03:07:11.110Z,6.78
2022-07-28T03:09:43.253Z,6.90
2022-07-28T03:12:11.548Z,7.30
2022-07-28T03:14:40.225Z,6.93
2022-07-28T03:17:10.078Z,6.43
2022-07-28T03:19:38.588Z,5.93
2022-07-28T03:22:10.405Z,5.78
2022-07-28T03:24:41.204Z,5.85
2022-07-28T03:29:43.920Z,6.75
2022-07-28T03:32:14.561Z,7.53
2022-07-28T03:37:14.452Z,6.90
2022-07-28T03:39:48.214Z,7.22
2022-07-28T03:42:18.483Z,7.20
2022-07-28T03:44:48.494Z,7.03
2022-07-28T03:47:22.590Z,7.38
2022-07-28T03:49:50.922Z,7.20
2022-07-28T03:52:19.767Z,6.70
2022-07-28T03:54:47.880Z,6.75
2022-07-28T03:57:16.070Z,7.05
2022-07-28T03:59:44.255Z,7.50
2022-07-28T04:02:12.476Z,7.38
2022-07-28T04:04:42.081Z,6.88
2022-07-28T04:07:10.211Z,6.28
2022-07-28T04:09:38.350Z,7.18
2022-07-28T04:12:06.912Z,6.88
2022-07-28T04:14:35.136Z,7.15
2022-07-28T04:17:03.306Z,6.97
2022-07-28T04:19:31.477Z,7.32
2022-07-28T04:22:00.987Z,7.15
2022-07-28T04:24:29.234Z,6.90
2022-07-28T04:26:57.391Z,6.68
2022-07-28T04:29:27.469Z,7.53
2022-07-28T04:31:55.794Z,7.05
2022-07-28T04:34:24.784Z,6.82
2022-07-28T04:36:53.201Z,6.80
2022-07-28T04:39:24.716Z,6.63
2022-07-28T04:41:52.976Z,6.38
2022-07-28T04:44:21.178Z,6.50
2022-07-28T04:46:49.285Z,6.38
2022-07-28T04:49:17.419Z,6.07
2022-07-28T04:51:49.392Z,6.57
2022-07-28T04:54:19.962Z,5.88
2022-07-28T04:56:51.510Z,6.32
2022-07-28T04:59:19.981Z,5.93
2022-07-28T05:01:49.674Z,5.90
2022-07-28T05:04:18.627Z,5.95
2022-07-28T05:06:47.173Z,6.28
2022-07-28T05:09:15.273Z,6.43
2022-07-28T05:11:43.880Z,6.13
2022-07-28T05:14:13.724Z,6.47
2022-07-28T05:16:42.204Z,8.77
2022-07-28T05:19:10.592Z,8.77
2022-07-28T05:21:38.798Z,8.45
2022-07-28T05:24:08.120Z,8.48
2022-07-28T05:26:36.255Z,7.88
2022-07-28T05:29:04.586Z,7.57
2022-07-28T05:31:34.301Z,8.05
2022-07-28T05:34:02.588Z,8.37
2022-07-28T05:36:30.702Z,8.00
2022-07-28T05:38:58.879Z,6.85
2022-07-28T05:41:26.953Z,7.25
2022-07-28T05:43:55.144Z,6.85
2022-07-28T05:46:23.836Z,7.70
2022-07-28T05:48:53.490Z,7.38
2022-07-28T05:51:21.713Z,7.55
2022-07-28T05:53:49.828Z,7.93
2022-07-28T05:56:18.115Z,6.72
2022-07-28T05:58:46.280Z,6.57
2022-07-28T06:01:14.454Z,7.15
2022-07-28T06:03:42.788Z,6.80
2022-07-28T06:06:15.978Z,7.10
2022-07-28T06:08:46.550Z,7.80
2022-07-28T06:11:21.911Z,7.33
2022-07-28T06:13:51.928Z,7.30
2022-07-28T06:16:21.107Z,6.80
2022-07-28T06:18:49.453Z,7.10
2022-07-28T06:21:19.017Z,6.82
2022-07-28T06:23:47.209Z,7.07
2022-07-28T06:26:30.580Z,6.50
2022-07-28T06:28:58.762Z,8.13
2022-07-28T06:31:27.005Z,7.85
2022-07-28T06:33:55.191Z,7.55
2022-07-28T06:36:24.682Z,7.28
2022-07-28T06:38:52.931Z,7.18
2022-07-28T06:41:21.086Z,7.07
2022-07-28T06:43:49.234Z,6.38
2022-07-28T06:46:19.459Z,6.88
2022-07-28T06:48:47.836Z,7.30
2022-07-28T06:51:19.150Z,7.10
2022-07-28T06:53:49.041Z,6.13
2022-07-28T06:56:19.686Z,6.18
2022-07-28T06:58:49.657Z,6.68
2022-07-28T07:01:17.877Z,5.53
2022-07-28T07:03:46.111Z,5.70
2022-07-28T07:06:14.422Z,6.40
2022-07-28T07:08:42.625Z,6.18
2022-07-28T07:11:13.101Z,6.25
2022-07-28T07:13:41.269Z,6.50
2022-07-28T07:16:09.538Z,6.40
2022-07-28T07:18:38.150Z,7.28
2022-07-28T07:21:06.537Z,7.15
2022-07-28T07:23:35.473Z,6.85
2022-07-28T07:26:04.461Z,6.63
2022-07-28T07:28:34.928Z,6.72
2022-07-28T07:31:03.207Z,7.30
2022-07-28T07:33:31.453Z,7.25
2022-07-28T07:35:59.596Z,6.97
2022-07-28T07:38:29.399Z,8.02
2022-07-28T07:40:57.825Z,7.23
2022-07-28T07:43:26.059Z,7.72
2022-07-28T07:45:56.122Z,7.65
2022-07-28T07:48:24.311Z,8.00
2022-07-28T07:50:54.311Z,8.40
2022-07-28T07:53:22.928Z,8.70
2022-07-28T07:55:51.413Z,8.30
2022-07-28T07:58:19.626Z,8.07
2022-07-28T08:00:47.786Z,7.20
2022-07-28T08:03:22.509Z,7.68
2022-07-28T08:05:51.694Z,7.18
2022-07-28T08:08:19.836Z,7.22
2022-07-28T08:10:51.025Z,7.10
2022-07-28T08:13:20.420Z,7.13
2022-07-28T08:15:48.666Z,6.97
2022-07-28T08:18:18.265Z,7.38
2022-07-28T08:20:46.433Z,7.00
2022-07-28T08:23:14.582Z,7.63
2022-07-28T08:25:44.358Z,7.88
2022-07-28T08:28:12.509Z,7.87
2022-07-28T08:30:40.739Z,7.93
2022-07-28T08:33:08.926Z,7.85
2022-07-28T08:35:38.760Z,7.60
2022-07-28T08:38:07.334Z,7.60
2022-07-28T08:40:37.491Z,6.82
2022-07-28T08:43:14.992Z,7.30
2022-07-28T08:45:44.553Z,7.50
2022-07-28T08:48:13.584Z,6.95
2022-07-28T08:50:45.235Z,7.70
2022-07-28T08:53:15.624Z,7.80
2022-07-28T08:55:44.582Z,7.80
2022-07-28T08:58:14.088Z,7.05
2022-07-28T09:00:43.171Z,7.82
2022-07-28T09:03:13.490Z,7.28
2022-07-28T09:05:44.832Z,7.03
2022-07-28T09:08:13.471Z,7.50
2022-07-28T09:10:41.655Z,6.72
2022-07-28T09:13:10.135Z,7.63
2022-07-28T09:15:42.326Z,7.97
2022-07-28T09:18:10.490Z,7.90
2022-07-28T09:20:40.007Z,7.43
2022-07-28T09:23:42.423Z,7.70
2022-07-28T09:31:16.636Z,7.15
2022-07-28T09:34:00.424Z,7.22
2022-07-28T09:36:29.266Z,7.20
2022-07-28T09:38:59.227Z,6.93
2022-07-28T09:41:27.473Z,6.90
2022-07-28T09:43:56.040Z,6.97
2022-07-28T09:46:26.119Z,7.68
2022-07-28T09:48:58.592Z,6.75
2022-07-28T09:51:28.723Z,6.57
2022-07-28T09:54:09.457Z,6.53
2022-07-28T09:56:38.115Z,7.00
2022-07-28T09:59:06.865Z,8.07
2022-07-28T10:01:52.066Z,7.97
2022-07-28T10:04:31.399Z,7.22
2022-07-28T10:07:05.479Z,7.38
2022-07-28T10:09:35.221Z,7.28
2022-07-28T10:12:17.102Z,8.30
2022-07-28T10:14:47.362Z,7.30
2022-07-28T10:17:30.266Z,7.25
2022-07-28T10:19:59.885Z,7.03
2022-07-28T10:22:33.087Z,7.40
2022-07-28T10:25:09.866Z,7.88
2022-07-28T10:27:38.590Z,7.60
2022-07-28T10:30:07.979Z,7.45
2022-07-28T10:32:41.588Z,6.88
2022-07-28T10:35:12.461Z,7.10
2022-07-28T10:37:46.579Z,7.03
2022-07-28T10:40:19.522Z,6.38
2022-07-28T10:42:47.863Z,7.03
2022-07-28T10:45:18.228Z,7.50
2022-07-28T10:47:47.276Z,6.53
2022-07-28T10:50:16.058Z,7.10
2022-07-28T10:52:50.112Z,6.68
2022-07-28T10:55:31.911Z,6.25
2022-07-28T10:58:12.260Z,6.28
2022-07-28T11:00:59.921Z,6.30
2022-07-28T11:03:42.918Z,6.60
2022-07-28T11:06:26.633Z,6.60
2022-07-28T11:08:55.077Z,7.03
2022-07-28T11:11:49.905Z,6.90
2022-07-28T11:14:33.916Z,6.60
2022-07-28T11:17:23.817Z,7.13
2022-07-28T11:22:46.015Z,5.70
2022-07-28T11:25:18.994Z,5.20
2022-07-28T11:28:04.634Z,5.95
2022-07-28T11:30:53.571Z,5.80
2022-07-28T11:33:22.597Z,6.25
2022-07-28T11:35:56.763Z,5.70
2022-07-28T11:38:26.199Z,5.03
2022-07-28T11:40:56.197Z,5.53
2022-07-28T11:43:43.593Z,5.72
2022-07-28T11:46:40.353Z,5.88
2022-07-28T11:49:27.571Z,6.40
2022-07-28T11:52:22.954Z,5.75
2022-07-28T11:54:54.093Z,5.78
2022-07-28T11:57:25.934Z,5.47
2022-07-28T12:00:00.690Z,5.53
2022-07-28T12:02:31.741Z,5.75
2022-07-28T12:05:12.755Z,5.63
2022-07-28T12:07:46.447Z,5.95
2022-07-28T12:10:54.344Z,6.35
2022-07-28T12:13:25.753Z,5.82
2022-07-28T12:15:55.499Z,5.85
2022-07-28T12:18:24.879Z,6.13
2022-07-28T12:20:54.704Z,6.07
2022-07-28T12:23:38.929Z,5.97
2022-07-28T12:28:51.746Z,6.03
2022-07-28T12:31:25.955Z,5.90
2022-07-28T12:33:54.480Z,5.68
2022-07-28T12:36:24.266Z,5.75
2022-07-28T12:38:53.541Z,5.60
2022-07-28T12:41:21.875Z,5.85
2022-07-28T12:43:54.732Z,5.45
2022-07-28T12:46:28.511Z,5.68
2022-07-28T12:48:58.134Z,5.70
2022-07-28T12:51:33.809Z,5.78
2022-07-28T12:54:03.861Z,5.70
2022-07-28T12:56:32.191Z,5.10
2022-07-28T12:59:08.032Z,5.57
2022-07-28T13:01:48.971Z,5.75
2022-07-28T13:04:17.994Z,5.50
2022-07-28T13:06:57.436Z,5.43
2022-07-28T13:09:32.653Z,5.65
2022-07-28T13:12:01.487Z,5.38
2022-07-28T13:14:42.528Z,5.72
2022-07-28T13:17:12.543Z,5.38
2022-07-28T13:19:40.673Z,5.15
2022-07-28T13:22:09.553Z,5.32
2022-07-28T13:24:37.834Z,5.20
2022-07-28T13:27:06.981Z,5.80
2022-07-28T13:29:36.123Z,5.78
2022-07-28T13:32:04.463Z,5.50
2022-07-28T13:34:34.504Z,5.70
2022-07-28T13:37:02.654Z,5.70
2022-07-28T13:39:30.786Z,5.57
2022-07-28T13:41:59.479Z,5.70
2022-07-28T13:44:28.496Z,5.18
2022-07-28T13:46:59.061Z,5.50
2022-07-28T13:49:28.408Z,5.50
2022-07-28T13:51:58.564Z,5.88
2022-07-28T13:54:28.737Z,6.43
2022-07-28T13:56:56.945Z,6.03
2022-07-28T13:59:26.418Z,6.03
2022-07-28T14:01:56.125Z,6.15
2022-07-28T14:04:25.119Z,5.70
2022-07-28T14:09:24.547Z,5.85
2022-07-28T14:11:53.248Z,5.65
2022-07-28T14:14:24.083Z,5.38
2022-07-28T14:16:54.486Z,5.85
2022-07-28T14:19:38.629Z,5.07
2022-07-28T14:22:13.085Z,5.47
2022-07-28T14:24:43.570Z,5.50
2022-07-28T14:27:12.273Z,5.87
2022-07-28T14:29:40.574Z,5.90
2022-07-28T14:32:08.754Z,5.90
2022-07-28T14:34:37.147Z,5.80
2022-07-28T14:37:08.904Z,5.93
2022-07-28T14:39:38.237Z,5.85
2022-07-28T14:42:08.280Z,5.20
2022-07-28T14:44:36.475Z,5.60
2022-07-28T14:47:05.021Z,5.63
2022-07-28T14:49:33.192Z,5.60
2022-07-28T14:52:01.354Z,5.63
2022-07-28T14:54:29.575Z,5.60
2022-07-28T14:56:57.807Z,5.43
2022-07-28T14:59:27.314Z,5.38
2022-07-28T15:01:55.628Z,5.57
2022-07-28T15:04:25.427Z,5.60
2022-07-28T15:06:53.974Z,5.10
2022-07-28T15:09:22.345Z,5.63
2022-07-28T15:11:50.473Z,5.00
2022-07-28T15:14:20.458Z,5.30
2022-07-28T15:16:51.166Z,5.80
2022-07-28T15:19:19.340Z,5.50
2022-07-28T15:21:47.997Z,5.68
2022-07-28T15:24:17.712Z,5.65
2022-07-28T15:26:46.237Z,5.75
2022-07-28T15:29:14.476Z,5.53
2022-07-28T15:31:43.426Z,5.70
2022-07-28T15:34:15.648Z,4.90
2022-07-28T15:36:44.396Z,5.20
2022-07-28T15:39:14.911Z,5.18
2022-07-28T15:44:13.146Z,5.30
2022-07-28T15:46:41.879Z,4.72
2022-07-28T15:49:11.553Z,5.10
2022-07-28T15:51:41.349Z,5.70
2022-07-28T15:54:10.036Z,5.53
2022-07-28T15:56:38.292Z,4.65
2022-07-28T15:59:07.768Z,5.30
2022-07-28T16:01:36.133Z,4.85
2022-07-28T16:04:04.568Z,5.03
2022-07-28T16:06:46.612Z,5.18
2022-07-28T16:09:16.385Z,4.95
2022-07-28T16:11:44.533Z,5.40
2022-07-28T16:14:13.090Z,4.60
2022-07-28T16:16:41.382Z,5.05
2022-07-28T16:19:31.570Z,4.70
2022-07-28T16:21:59.148Z,4.70
2022-07-28T16:24:28.686Z,4.90
2022-07-28T16:26:56.869Z,4.38
2022-07-28T16:29:25.574Z,4.85
2022-07-28T16:31:53.775Z,5.25
2022-07-28T16:34:22.022Z,5.50
2022-07-28T16:36:50.251Z,5.18
2022-07-28T16:39:18.397Z,5.55
2022-07-28T16:41:48.918Z,5.20
2022-07-28T16:44:19.174Z,5.22
2022-07-28T16:46:47.720Z,4.83
2022-07-28T16:49:16.911Z,5.00
2022-07-28T16:51:45.079Z,5.15
2022-07-28T16:54:14.270Z,5.97
2022-07-28T16:56:42.989Z,5.40
2022-07-28T16:59:12.534Z,5.00
2022-07-28T17:01:45.531Z,5.07
2022-07-28T17:04:14.685Z,4.93
2022-07-28T17:06:43.543Z,5.18
2022-07-28T17:09:11.786Z,4.93
2022-07-28T17:11:41.103Z,4.68
2022-07-28T17:14:09.308Z,5.00
2022-07-28T17:16:38.915Z,5.00
2022-07-28T17:19:07.132Z,4.47
2022-07-28T17:21:36.090Z,4.93
2022-07-28T17:24:04.808Z,5.25
2022-07-28T17:29:23.145Z,4.77
2022-07-28T17:31:52.769Z,5.18
2022-07-28T17:34:20.908Z,5.28
2022-07-28T17:36:50.389Z,5.10
2022-07-28T17:39:18.652Z,5.35
2022-07-28T17:41:46.798Z,5.13
2022-07-28T17:44:15.239Z,4.75
2022-07-28T17:46:45.444Z,5.55
2022-07-28T17:49:15.147Z,4.50
2022-07-28T17:51:43.634Z,4.67
2022-07-28T17:54:14.119Z,5.10
2022-07-28T17:56:43.091Z,4.80
2022-07-28T17:59:12.837Z,4.85
2022-07-28T18:01:45.332Z,4.43
2022-07-28T18:04:15.315Z,5.07
2022-07-28T18:06:44.667Z,5.07
2022-07-28T18:09:12.813Z,5.22
2022-07-28T18:11:55.615Z,4.72
2022-07-28T18:14:26.409Z,5.28
2022-07-28T18:16:54.714Z,5.07
2022-07-28T18:19:24.260Z,4.63
2022-07-28T18:21:52.462Z,4.97
2022-07-28T18:24:22.276Z,4.65
2022-07-28T18:26:51.296Z,4.93
2022-07-28T18:29:20.926Z,4.40
2022-07-28T18:31:49.797Z,5.07
2022-07-28T18:34:18.265Z,4.80
2022-07-28T18:36:48.105Z,5.15
2022-07-28T18:39:18.976Z,4.72
2022-07-28T18:41:47.979Z,4.68
2022-07-28T18:44:17.734Z,4.95
2022-07-28T18:46:47.032Z,4.53
2022-07-28T18:49:15.772Z,4.72
2022-07-28T18:51:45.444Z,4.78
2022-07-28T18:54:20.030Z,4.97
2022-07-28T18:56:50.121Z,4.53
2022-07-28T18:59:18.736Z,4.78
2022-07-28T19:01:47.308Z,5.35
2022-07-28T19:04:15.947Z,4.70
2022-07-28T19:06:44.396Z,5.25
2022-07-28T19:09:14.011Z,4.63
2022-07-28T19:11:46.034Z,4.93
2022-07-28T19:14:15.363Z,5.50
2022-07-28T19:16:44.213Z,5.25
2022-07-28T19:19:12.986Z,4.80
2022-07-28T19:21:43.403Z,5.05
2022-07-28T19:24:12.451Z,5.13
2022-07-28T19:26:43.292Z,5.22
2022-07-28T19:31:40.071Z,4.80
2022-07-28T19:34:09.365Z,5.15
2022-07-28T19:36:38.046Z,5.20
2022-07-28T19:39:06.272Z,5.15
2022-07-28T19:41:34.574Z,4.60
2022-07-28T19:44:04.490Z,5.45
2022-07-28T19:46:32.646Z,5.20
2022-07-28T19:49:00.853Z,4.60
2022-07-28T19:51:29.080Z,5.13
2022-07-28T19:53:58.636Z,4.80
2022-07-28T19:56:31.232Z,5.30
2022-07-28T19:59:00.116Z,4.47
2022-07-28T20:01:29.779Z,5.28
2022-07-28T20:04:01.979Z,4.78
2022-07-28T20:06:32.887Z,5.20
2022-07-28T20:09:01.640Z,4.72
2022-07-28T20:11:29.844Z,5.07
2022-07-28T20:13:58.191Z,4.50
2022-07-28T20:16:26.628Z,5.57
2022-07-28T20:18:56.928Z,5.70
2022-07-28T20:21:26.461Z,5.40
2022-07-28T20:23:56.294Z,5.07
2022-07-28T20:26:25.949Z,5.03
2022-07-28T20:28:54.997Z,5.18
2022-07-28T20:31:23.279Z,4.85
2022-07-28T20:33:52.764Z,5.05
2022-07-28T20:36:26.241Z,4.90
2022-07-28T20:38:57.428Z,4.95
2022-07-28T20:41:25.609Z,4.28
2022-07-28T20:44:18.459Z,4.75
2022-07-28T20:46:41.923Z,5.35
2022-07-28T20:49:10.255Z,5.30
2022-07-28T20:51:39.768Z,4.75
2022-07-28T20:54:18.993Z,4.57
2022-07-28T20:56:47.173Z,4.80
2022-07-28T20:59:15.428Z,4.53
2022-07-28T21:01:43.994Z,4.60
2022-07-28T21:04:12.493Z,5.13
2022-07-28T21:06:51.255Z,5.70
2022-07-28T21:09:21.070Z,4.60
2022-07-28T21:11:49.451Z,4.53
2022-07-28T21:14:17.990Z,4.40
2022-07-28T21:16:46.736Z,4.65
2022-07-28T21:19:15.005Z,5.00
2022-07-28T21:21:44.673Z,4.82
2022-07-28T21:24:13.159Z,5.00
2022-07-28T21:26:42.752Z,4.80
2022-07-28T21:32:01.978Z,4.55
2022-07-28T21:34:30.379Z,4.70
2022-07-28T21:37:00.186Z,4.65
2022-07-28T21:39:28.640Z,4.57
2022-07-28T21:41:56.770Z,5.07
2022-07-28T21:44:25.260Z,4.80
2022-07-28T21:46:53.411Z,4.20
2022-07-28T21:49:21.685Z,5.15
2022-07-28T21:51:49.999Z,5.10
2022-07-28T21:54:20.266Z,5.25
2022-07-28T21:56:48.529Z,5.00
2022-07-28T21:59:16.708Z,4.88
2022-07-28T22:01:44.926Z,4.80
2022-07-28T22:04:13.492Z,4.78
2022-07-28T22:06:46.098Z,4.90
2022-07-28T22:09:14.743Z,5.13
2022-07-28T22:11:44.638Z,4.68
2022-07-28T22:14:13.558Z,4.83
2022-07-28T22:16:42.149Z,5.25
2022-07-28T22:19:11.904Z,5.05
2022-07-28T22:21:40.146Z,5.00
2022-07-28T22:24:08.894Z,5.55
2022-07-28T22:26:37.018Z,5.78
2022-07-28T22:29:06.566Z,5.15
2022-07-28T22:31:34.823Z,5.25
2022-07-28T22:34:03.034Z,4.88
2022-07-28T22:36:31.199Z,5.40
2022-07-28T22:38:59.272Z,5.40
2022-07-28T22:41:27.381Z,5.03
2022-07-28T22:43:55.676Z,5.25
2022-07-28T22:46:25.252Z,5.35
2022-07-28T22:48:53.633Z,5.53
2022-07-28T22:51:21.823Z,5.00
2022-07-28T22:53:50.292Z,5.63
2022-07-28T22:59:04.306Z,5.75
2022-07-28T23:01:34.206Z,5.93
2022-07-28T23:04:02.948Z,5.88
2022-07-28T23:06:31.414Z,7.00
2022-07-28T23:08:59.710Z,6.57
2022-07-28T23:11:27.996Z,6.50
2022-07-28T23:13:56.365Z,6.40
2022-07-28T23:16:24.639Z,6.93
2022-07-28T23:18:54.274Z,6.63
2022-07-28T23:21:22.863Z,6.72
2022-07-28T23:23:51.271Z,7.22
2022-07-28T23:26:19.719Z,6.47
2022-07-28T23:28:48.241Z,7.65
2022-07-28T23:31:16.587Z,6.30
2022-07-28T23:33:54.368Z,5.88
2022-07-28T23:36:27.455Z,6.15
2022-07-28T23:38:57.075Z,6.43
2022-07-28T23:41:25.917Z,6.38
2022-07-28T23:43:54.880Z,6.10
2022-07-28T23:46:23.627Z,5.60
2022-07-28T23:48:52.079Z,5.53
2022-07-28T23:51:21.330Z,4.65
2022-07-28T23:53:56.226Z,5.43
2022-07-28T23:56:24.850Z,4.93
2022-07-28T23:58:53.122Z,5.00
